createdAt,value
2023-04-14T00:00:02.918Z,9.25
2023-04-14T00:02:43.725Z,9.26
2023-04-14T00:05:12.118Z,9.25
2023-04-14T00:07:40.746Z,9.24
2023-04-14T00:10:10.073Z,9.24
2023-04-14T00:12:38.544Z,9.28
2023-04-14T00:15:07.136Z,9.28
2023-04-14T00:17:37.163Z,9.24
2023-04-14T00:20:06.059Z,9.23
2023-04-14T00:22:34.600Z,9.24
2023-04-14T00:25:02.443Z,9.27
2023-04-14T00:27:31.362Z,9.31
2023-04-14T00:29:59.746Z,9.35
2023-04-14T00:32:27.920Z,9.38
2023-04-14T00:34:57.031Z,9.41
2023-04-14T00:37:25.079Z,9.42
2023-04-14T00:39:53.291Z,9.42
2023-04-14T00:42:21.223Z,9.39
2023-04-14T00:44:49.245Z,9.35
2023-04-14T00:47:17.520Z,9.36
2023-04-14T00:49:46.145Z,9.34
2023-04-14T00:52:14.000Z,9.36
2023-04-14T00:54:42.021Z,9.39
2023-04-14T00:57:10.147Z,9.42
2023-04-14T00:59:38.041Z,9.44
2023-04-14T01:02:08.652Z,9.47
2023-04-14T01:04:52.228Z,9.51
2023-04-14T01:07:23.092Z,9.54
2023-04-14T01:09:53.115Z,9.55
2023-04-14T01:12:55.082Z,9.51
2023-04-14T01:15:43.288Z,9.41
2023-04-14T01:18:44.842Z,9.31
2023-04-14T01:21:21.141Z,9.22
2023-04-14T01:24:06.108Z,9.17
2023-04-14T01:26:34.851Z,9.14
2023-04-14T01:29:06.208Z,9.13
2023-04-14T01:31:43.454Z,9.14
2023-04-14T01:34:21.476Z,9.12
2023-04-14T01:36:55.572Z,9.08
2023-04-14T01:39:33.296Z,9.08
2023-04-14T01:42:02.302Z,9.07
2023-04-14T01:44:30.754Z,9.05
2023-04-14T01:47:02.509Z,9.03
2023-04-14T01:49:32.347Z,9.02
2023-04-14T01:52:01.803Z,9.03
2023-04-14T01:54:31.752Z,9.03
2023-04-14T01:57:01.892Z,9.01
2023-04-14T01:59:31.188Z,8.99
2023-04-14T02:02:01.764Z,8.96
2023-04-14T02:04:30.113Z,8.95
2023-04-14T02:06:59.566Z,8.94
2023-04-14T02:09:28.306Z,8.92
2023-04-14T02:11:56.448Z,8.86
2023-04-14T02:14:24.616Z,8.83
2023-04-14T02:16:54.015Z,8.82
2023-04-14T02:19:22.088Z,8.86
2023-04-14T02:21:51.048Z,8.88
2023-04-14T02:24:19.372Z,8.88
2023-04-14T02:27:03.464Z,8.86
2023-04-14T02:29:32.282Z,8.85
2023-04-14T02:32:04.007Z,8.82
2023-04-14T02:34:55.790Z,8.83
2023-04-14T02:37:25.828Z,8.82
2023-04-14T02:39:56.985Z,8.83
2023-04-14T02:42:27.148Z,8.84
2023-04-14T02:45:07.093Z,8.86
2023-04-14T02:47:42.115Z,8.89
2023-04-14T02:50:12.258Z,8.91
2023-04-14T02:52:41.098Z,8.93
2023-04-14T02:55:11.333Z,8.91
2023-04-14T02:57:40.840Z,8.86
2023-04-14T03:00:10.820Z,8.81
2023-04-14T03:02:43.330Z,8.81
2023-04-14T03:05:11.378Z,8.80
2023-04-14T03:07:52.519Z,8.75
2023-04-14T03:10:22.000Z,8.70
2023-04-14T03:12:50.831Z,8.63
2023-04-14T03:15:19.166Z,8.57
2023-04-14T03:17:48.858Z,8.51
2023-04-14T03:20:20.246Z,8.50
2023-04-14T03:23:04.969Z,8.50
2023-04-14T03:25:37.989Z,8.50
2023-04-14T03:28:10.620Z,8.49
2023-04-14T03:30:41.533Z,8.49
2023-04-14T03:33:13.083Z,8.49
2023-04-14T03:35:41.252Z,8.47
2023-04-14T03:38:09.239Z,8.46
2023-04-14T03:40:40.206Z,8.46
2023-04-14T03:43:10.082Z,8.45
2023-04-14T03:45:40.161Z,8.43
2023-04-14T03:48:11.859Z,8.44
2023-04-14T03:50:46.495Z,8.44
2023-04-14T03:53:15.098Z,8.42
2023-04-14T03:55:44.007Z,8.42
2023-04-14T03:58:13.732Z,8.45
2023-04-14T04:00:42.142Z,8.47
2023-04-14T04:03:10.827Z,8.50
2023-04-14T04:05:42.131Z,8.53
2023-04-14T04:08:10.279Z,8.55
2023-04-14T04:10:38.305Z,8.59
2023-04-14T04:13:09.406Z,8.64
2023-04-14T04:15:41.150Z,8.69
2023-04-14T04:18:10.154Z,8.71
2023-04-14T04:20:39.668Z,8.70
2023-04-14T04:23:09.188Z,8.70
2023-04-14T04:25:37.763Z,8.72
2023-04-14T04:28:25.889Z,8.73
2023-04-14T04:30:54.268Z,8.72
2023-04-14T04:33:22.999Z,8.70
2023-04-14T04:35:51.555Z,8.67
2023-04-14T04:38:20.938Z,8.61
2023-04-14T04:40:48.925Z,8.57
2023-04-14T04:43:23.655Z,8.56
2023-04-14T04:46:13.078Z,8.56
2023-04-14T04:48:41.195Z,8.59
2023-04-14T04:51:10.164Z,8.58
2023-04-14T04:53:38.022Z,8.59
2023-04-14T04:56:08.457Z,8.54
2023-04-14T04:58:37.631Z,8.51
2023-04-14T05:01:11.237Z,8.53
2023-04-14T05:03:41.046Z,8.55
2023-04-14T05:06:08.872Z,8.53
2023-04-14T05:08:36.759Z,8.49
2023-04-14T05:11:06.089Z,8.46
2023-04-14T05:13:34.073Z,8.46
2023-04-14T05:16:06.556Z,8.48
2023-04-14T05:18:42.758Z,8.54
2023-04-14T05:21:14.460Z,8.55
2023-04-14T05:23:43.799Z,8.51
2023-04-14T05:28:47.750Z,8.50
2023-04-14T05:31:16.596Z,8.51
2023-04-14T05:33:44.717Z,8.50
2023-04-14T05:36:12.964Z,8.51
2023-04-14T05:38:41.813Z,8.53
2023-04-14T05:41:09.792Z,8.54
2023-04-14T05:43:37.671Z,8.57
2023-04-14T05:46:06.000Z,8.60
2023-04-14T05:48:37.729Z,8.66
2023-04-14T05:51:06.426Z,8.72
2023-04-14T05:53:34.576Z,8.71
2023-04-14T05:56:02.655Z,8.66
2023-04-14T05:58:31.072Z,8.63
2023-04-14T06:01:03.981Z,8.65
2023-04-14T06:03:34.108Z,8.67
2023-04-14T06:06:02.534Z,8.70
2023-04-14T06:08:31.011Z,8.75
2023-04-14T06:10:59.399Z,8.80
2023-04-14T06:15:59.518Z,8.94
2023-04-14T06:18:29.702Z,8.97
2023-04-14T06:20:57.830Z,9.00
2023-04-14T06:23:26.860Z,9.07
2023-04-14T06:25:55.952Z,9.10
2023-04-14T06:28:25.788Z,9.16
2023-04-14T06:30:53.954Z,9.21
2023-04-14T06:33:21.955Z,9.22
2023-04-14T06:35:51.391Z,9.19
2023-04-14T06:38:19.742Z,9.22
2023-04-14T06:40:47.657Z,9.24
2023-04-14T06:43:17.786Z,9.23
2023-04-14T06:45:46.352Z,9.21
2023-04-14T06:48:15.246Z,9.23
2023-04-14T06:50:53.626Z,9.24
2023-04-14T06:53:22.703Z,9.27
2023-04-14T06:56:09.001Z,9.32
2023-04-14T06:58:40.462Z,9.34
2023-04-14T07:01:08.872Z,9.30
2023-04-14T07:03:38.399Z,9.22
2023-04-14T07:06:12.736Z,9.17
2023-04-14T07:08:42.154Z,9.18
2023-04-14T07:11:11.132Z,9.17
2023-04-14T07:13:39.654Z,9.18
2023-04-14T07:16:10.017Z,9.24
2023-04-14T07:18:38.940Z,9.22
2023-04-14T07:21:07.124Z,9.19
2023-04-14T07:23:40.617Z,9.17
2023-04-14T07:26:08.632Z,9.09
2023-04-14T07:28:37.258Z,9.05
2023-04-14T07:31:10.223Z,9.04
2023-04-14T07:33:39.091Z,8.96
2023-04-14T07:36:10.113Z,8.96
2023-04-14T07:38:38.017Z,9.01
2023-04-14T07:41:07.666Z,9.07
2023-04-14T07:43:36.040Z,9.14
2023-04-14T07:46:05.639Z,9.26
2023-04-14T07:48:34.856Z,9.38
2023-04-14T07:51:11.482Z,9.49
2023-04-14T07:53:42.497Z,9.55
2023-04-14T07:56:11.461Z,9.58
2023-04-14T07:58:40.287Z,9.60
2023-04-14T08:01:08.359Z,9.59
2023-04-14T08:03:37.909Z,9.58
2023-04-14T08:06:07.764Z,9.57
2023-04-14T08:08:36.833Z,9.61
2023-04-14T08:11:04.929Z,9.65
2023-04-14T08:13:32.852Z,9.69
2023-04-14T08:16:03.146Z,9.66
2023-04-14T08:18:32.524Z,9.62
2023-04-14T08:21:00.395Z,9.65
2023-04-14T08:23:28.286Z,9.69
2023-04-14T08:25:56.149Z,9.73
2023-04-14T08:28:24.732Z,9.75
2023-04-14T08:30:54.453Z,9.79
2023-04-14T08:33:23.459Z,9.83
2023-04-14T08:35:59.418Z,9.87
2023-04-14T08:38:29.716Z,9.89
2023-04-14T08:40:57.851Z,9.93
2023-04-14T08:43:25.828Z,9.95
2023-04-14T08:45:55.956Z,9.92
2023-04-14T08:48:27.567Z,9.89
2023-04-14T08:50:59.544Z,9.91
2023-04-14T08:53:35.121Z,9.91
2023-04-14T08:56:04.355Z,9.96
2023-04-14T08:58:32.407Z,9.99
2023-04-14T09:01:01.776Z,9.99
2023-04-14T09:03:31.684Z,10.00
2023-04-14T09:05:59.838Z,9.97
2023-04-14T09:08:36.405Z,9.96
2023-04-14T09:11:05.414Z,9.95
2023-04-14T09:13:33.758Z,9.97
2023-04-14T09:16:01.954Z,10.00
2023-04-14T09:18:34.352Z,10.04
2023-04-14T09:21:31.186Z,10.02
2023-04-14T09:23:52.377Z,9.98
2023-04-14T09:26:20.477Z,9.93
2023-04-14T09:28:48.656Z,9.89
2023-04-14T09:31:19.798Z,9.88
2023-04-14T09:33:50.623Z,9.90
2023-04-14T09:36:23.569Z,9.88
2023-04-14T09:38:51.889Z,9.90
2023-04-14T09:41:22.568Z,9.93
2023-04-14T09:43:50.891Z,9.99
2023-04-14T09:46:19.136Z,10.06
2023-04-14T09:48:53.914Z,10.12
2023-04-14T09:51:23.675Z,10.12
2023-04-14T09:53:52.972Z,10.12
2023-04-14T09:56:26.468Z,10.16
2023-04-14T09:59:00.988Z,10.24
2023-04-14T10:01:32.274Z,10.28
2023-04-14T10:04:02.254Z,10.33
2023-04-14T10:06:34.079Z,10.38
2023-04-14T10:09:02.741Z,10.38
2023-04-14T10:11:33.041Z,10.41
2023-04-14T10:14:03.995Z,10.49
2023-04-14T10:16:33.315Z,10.54
2023-04-14T10:19:02.322Z,10.57
2023-04-14T10:21:30.843Z,10.57
2023-04-14T10:23:58.700Z,10.54
2023-04-14T10:26:27.293Z,10.54
2023-04-14T10:28:56.236Z,10.56
2023-04-14T10:31:36.395Z,10.58
2023-04-14T10:34:11.558Z,10.61
2023-04-14T10:36:40.455Z,10.63
2023-04-14T10:39:10.266Z,10.58
2023-04-14T10:41:45.998Z,10.50
2023-04-14T10:44:43.268Z,10.44
2023-04-14T10:47:11.228Z,10.38
2023-04-14T10:49:40.887Z,10.34
2023-04-14T10:52:14.866Z,10.32
2023-04-14T10:54:50.969Z,10.33
2023-04-14T10:57:22.476Z,10.31
2023-04-14T10:59:55.136Z,10.33
2023-04-14T11:04:18.101Z,10.36
2023-04-14T11:06:51.315Z,10.36
2023-04-14T11:09:32.219Z,10.36
2023-04-14T11:12:04.836Z,10.36
2023-04-14T11:14:35.069Z,10.38
2023-04-14T11:17:05.039Z,10.35
2023-04-14T11:19:33.522Z,10.34
2023-04-14T11:22:02.212Z,10.32
2023-04-14T11:24:30.323Z,10.35
2023-04-14T11:26:58.602Z,10.40
2023-04-14T11:29:30.646Z,10.43
2023-04-14T11:32:01.183Z,10.46
2023-04-14T11:34:30.030Z,10.42
2023-04-14T11:36:57.996Z,10.37
2023-04-14T11:39:26.525Z,10.32
2023-04-14T11:41:56.076Z,10.29
2023-04-14T11:44:25.424Z,10.28
2023-04-14T11:46:53.766Z,10.27
2023-04-14T11:49:33.531Z,10.25
2023-04-14T11:52:06.611Z,10.25
2023-04-14T11:54:37.184Z,10.26
2023-04-14T11:57:10.275Z,10.26
2023-04-14T11:59:42.735Z,10.25
2023-04-14T12:02:18.691Z,10.24
2023-04-14T12:04:50.641Z,10.25
2023-04-14T12:07:19.635Z,10.28
2023-04-14T12:09:51.675Z,10.32
2023-04-14T12:12:20.341Z,10.36
2023-04-14T12:14:48.835Z,10.44
2023-04-14T12:17:21.581Z,10.52
2023-04-14T12:19:50.108Z,10.57
2023-04-14T12:22:27.077Z,10.59
2023-04-14T12:24:55.931Z,10.59
2023-04-14T12:27:25.307Z,10.57
2023-04-14T12:29:53.328Z,10.56
2023-04-14T12:32:23.150Z,10.54
2023-04-14T12:34:57.556Z,10.53
2023-04-14T12:37:26.668Z,10.53
2023-04-14T12:39:59.129Z,10.51
2023-04-14T12:42:28.288Z,10.51
2023-04-14T12:45:03.234Z,10.54
2023-04-14T12:47:33.800Z,10.56
2023-04-14T12:50:03.108Z,10.56
2023-04-14T12:52:33.790Z,10.58
2023-04-14T12:55:03.252Z,10.60
2023-04-14T12:57:35.141Z,10.64
2023-04-14T13:00:05.045Z,10.63
2023-04-14T13:02:36.318Z,10.63
2023-04-14T13:05:05.201Z,10.62
2023-04-14T13:07:33.475Z,10.65
2023-04-14T13:10:02.843Z,10.66
2023-04-14T13:12:31.804Z,10.65
2023-04-14T13:15:00.478Z,10.64
2023-04-14T13:17:28.878Z,10.59
2023-04-14T13:19:57.136Z,10.51
2023-04-14T13:22:25.874Z,10.43
2023-04-14T13:24:53.897Z,10.38
2023-04-14T13:27:21.901Z,10.35
2023-04-14T13:29:54.809Z,10.34
2023-04-14T13:32:23.503Z,10.31
2023-04-14T13:34:52.556Z,10.25
2023-04-14T13:37:22.325Z,10.24
2023-04-14T13:39:50.760Z,10.25
2023-04-14T13:42:19.315Z,10.27
2023-04-14T13:44:48.104Z,10.29
2023-04-14T13:47:16.745Z,10.31
2023-04-14T13:49:45.197Z,10.33
2023-04-14T13:52:13.169Z,10.35
2023-04-14T13:54:41.076Z,10.33
2023-04-14T13:57:09.236Z,10.32
2023-04-14T13:59:37.378Z,10.37
2023-04-14T14:02:06.822Z,10.42
2023-04-14T14:04:37.332Z,10.48
2023-04-14T14:07:07.684Z,10.53
2023-04-14T14:09:37.806Z,10.58
2023-04-14T14:12:12.549Z,10.60
2023-04-14T14:14:41.812Z,10.59
2023-04-14T14:17:10.332Z,10.56
2023-04-14T14:19:40.174Z,10.51
2023-04-14T14:22:09.389Z,10.47
2023-04-14T14:24:40.556Z,10.46
2023-04-14T14:27:10.699Z,10.45
2023-04-14T14:29:39.290Z,10.40
2023-04-14T14:32:08.433Z,10.34
2023-04-14T14:34:39.098Z,10.29
2023-04-14T14:37:07.229Z,10.24
2023-04-14T14:39:42.087Z,10.24
2023-04-14T14:42:10.746Z,10.21
2023-04-14T14:44:38.602Z,10.20
2023-04-14T14:47:07.234Z,10.19
2023-04-14T14:49:37.761Z,10.16
2023-04-14T14:52:09.058Z,10.16
2023-04-14T14:54:36.982Z,10.14
2023-04-14T14:57:05.226Z,10.12
2023-04-14T14:59:33.132Z,10.12
2023-04-14T15:02:01.721Z,10.13
2023-04-14T15:04:30.672Z,10.16
2023-04-14T15:06:58.775Z,10.16
2023-04-14T15:09:26.949Z,10.13
2023-04-14T15:11:55.344Z,10.12
2023-04-14T15:14:24.150Z,10.12
2023-04-14T15:16:52.831Z,10.10
2023-04-14T15:19:21.323Z,10.09
2023-04-14T15:21:49.999Z,10.10
2023-04-14T15:24:17.859Z,10.12
2023-04-14T15:26:48.155Z,10.13
2023-04-14T15:29:19.499Z,10.13
2023-04-14T15:31:48.237Z,10.13
2023-04-14T15:34:16.807Z,10.15
2023-04-14T15:36:44.714Z,10.13
2023-04-14T15:39:14.014Z,10.11
2023-04-14T15:41:44.702Z,10.09
2023-04-14T15:44:12.946Z,10.06
2023-04-14T15:46:40.798Z,10.02
2023-04-14T15:49:11.426Z,9.98
2023-04-14T15:51:41.124Z,9.93
2023-04-14T15:54:08.990Z,9.89
2023-04-14T15:56:37.175Z,9.87
2023-04-14T15:59:05.223Z,9.83
2023-04-14T16:01:33.372Z,9.76
2023-04-14T16:04:02.190Z,9.72
2023-04-14T16:06:34.066Z,9.67
2023-04-14T16:09:05.000Z,9.64
2023-04-14T16:11:33.743Z,9.62
2023-04-14T16:14:03.338Z,9.62
2023-04-14T16:16:32.684Z,9.62
2023-04-14T16:19:00.817Z,9.61
2023-04-14T16:21:29.184Z,9.59
2023-04-14T16:23:57.637Z,9.56
2023-04-14T16:26:25.689Z,9.54
2023-04-14T16:29:02.819Z,9.51
2023-04-14T16:31:31.574Z,9.51
2023-04-14T16:34:00.107Z,9.49
2023-04-14T16:36:29.118Z,9.46
2023-04-14T16:38:58.748Z,9.46
2023-04-14T16:41:29.069Z,9.46
2023-04-14T16:43:57.178Z,9.44
2023-04-14T16:46:26.256Z,9.41
2023-04-14T16:48:56.107Z,9.38
2023-04-14T16:51:26.888Z,9.36
2023-04-14T16:53:55.925Z,9.34
2023-04-14T16:56:24.138Z,9.32
2023-04-14T16:58:52.116Z,9.33
2023-04-14T17:01:20.922Z,9.33
2023-04-14T17:03:49.563Z,9.32
2023-04-14T17:06:17.831Z,9.31
2023-04-14T17:08:47.094Z,9.30
2023-04-14T17:11:15.373Z,9.30
2023-04-14T17:13:43.200Z,9.29
2023-04-14T17:16:11.858Z,9.26
2023-04-14T17:18:41.576Z,9.26
2023-04-14T17:21:09.461Z,9.26
2023-04-14T17:23:39.582Z,9.28
2023-04-14T17:26:07.925Z,9.26
2023-04-14T17:28:35.983Z,9.23
2023-04-14T17:31:05.076Z,9.23
2023-04-14T17:33:35.367Z,9.25
2023-04-14T17:36:03.525Z,9.24
2023-04-14T17:38:35.127Z,9.24
2023-04-14T17:41:03.462Z,9.25
2023-04-14T17:43:31.642Z,9.25
2023-04-14T17:46:00.214Z,9.24
2023-04-14T17:48:28.540Z,9.21
2023-04-14T17:50:56.530Z,9.18
2023-04-14T17:53:25.149Z,9.16
2023-04-14T17:55:53.767Z,9.14
2023-04-14T17:58:22.297Z,9.14
2023-04-14T18:00:51.681Z,9.14
2023-04-14T18:03:21.844Z,9.12
2023-04-14T18:05:50.617Z,9.11
2023-04-14T18:08:18.641Z,9.12
2023-04-14T18:10:46.754Z,9.14
2023-04-14T18:13:14.711Z,9.13
2023-04-14T18:15:42.637Z,9.11
2023-04-14T18:18:13.382Z,9.09
2023-04-14T18:20:45.377Z,9.08
2023-04-14T18:23:13.814Z,9.07
2023-04-14T18:28:18.863Z,9.06
2023-04-14T18:30:53.781Z,9.05
2023-04-14T18:33:22.723Z,9.04
2023-04-14T18:35:51.957Z,9.03
2023-04-14T18:38:20.283Z,9.02
2023-04-14T18:40:51.075Z,9.01
2023-04-14T18:43:19.241Z,9.00
2023-04-14T18:45:47.943Z,8.99
2023-04-14T18:48:18.079Z,8.99
2023-04-14T18:50:46.721Z,8.99
2023-04-14T18:53:14.903Z,8.96
2023-04-14T18:55:46.985Z,8.93
2023-04-14T18:58:16.161Z,8.92
2023-04-14T19:00:46.807Z,8.92
2023-04-14T19:03:17.120Z,8.91
2023-04-14T19:05:46.768Z,8.88
2023-04-14T19:08:15.081Z,8.85
2023-04-14T19:10:47.897Z,8.85
2023-04-14T19:13:17.084Z,8.85
2023-04-14T19:15:45.471Z,8.84
2023-04-14T19:18:13.510Z,8.85
2023-04-14T19:20:43.441Z,8.84
2023-04-14T19:23:12.024Z,8.85
2023-04-14T19:25:41.649Z,8.85
2023-04-14T19:28:16.908Z,8.85
2023-04-14T19:30:45.971Z,8.85
2023-04-14T19:33:14.127Z,8.87
2023-04-14T19:35:44.794Z,8.86
2023-04-14T19:38:13.050Z,8.84
2023-04-14T19:40:50.766Z,8.81
2023-04-14T19:43:20.148Z,8.78
2023-04-14T19:45:52.206Z,8.78
2023-04-14T19:48:23.740Z,8.76
2023-04-14T19:50:54.540Z,8.73
2023-04-14T19:53:23.003Z,8.69
2023-04-14T19:55:53.630Z,8.64
2023-04-14T19:58:21.998Z,8.59
2023-04-14T20:00:56.099Z,8.56
2023-04-14T20:03:25.866Z,8.51
2023-04-14T20:05:57.277Z,8.46
2023-04-14T20:08:26.453Z,8.42
2023-04-14T20:10:55.561Z,8.37
2023-04-14T20:13:24.467Z,8.31
2023-04-14T20:15:58.880Z,8.29
2023-04-14T20:18:28.732Z,8.27
2023-04-14T20:20:57.332Z,8.26
2023-04-14T20:23:25.683Z,8.24
2023-04-14T20:25:54.218Z,8.23
2023-04-14T20:28:26.443Z,8.24
2023-04-14T20:30:56.161Z,8.26
2023-04-14T20:33:31.110Z,8.27
2023-04-14T20:36:01.871Z,8.28
2023-04-14T20:38:30.039Z,8.30
2023-04-14T20:41:01.298Z,8.31
2023-04-14T20:43:34.351Z,8.34
2023-04-14T20:46:03.920Z,8.37
2023-04-14T20:48:35.329Z,8.37
2023-04-14T20:51:04.422Z,8.38
2023-04-14T20:53:32.518Z,8.38
2023-04-14T20:56:01.438Z,8.40
2023-04-14T20:58:29.802Z,8.39
2023-04-14T21:00:58.143Z,8.39
2023-04-14T21:03:28.644Z,8.40
2023-04-14T21:05:57.659Z,8.42
2023-04-14T21:08:27.351Z,8.43
2023-04-14T21:11:15.566Z,8.42
2023-04-14T21:15:26.470Z,8.39
2023-04-14T21:16:32.890Z,8.38
2023-04-14T21:19:04.262Z,8.37
2023-04-14T21:21:33.190Z,8.36
2023-04-14T21:24:02.396Z,8.35
2023-04-14T21:26:31.141Z,8.30
2023-04-14T21:29:05.160Z,8.26
2023-04-14T21:31:34.229Z,8.21
2023-04-14T21:34:02.445Z,8.17
2023-04-14T21:36:30.384Z,8.16
2023-04-14T21:38:58.418Z,8.14
2023-04-14T21:41:26.422Z,8.12
2023-04-14T21:43:54.370Z,8.09
2023-04-14T21:46:22.366Z,8.09
2023-04-14T21:48:51.781Z,8.10
2023-04-14T21:51:19.787Z,8.07
2023-04-14T21:53:50.893Z,8.06
2023-04-14T21:56:19.274Z,7.99
2023-04-14T21:58:47.260Z,7.91
2023-04-14T22:01:15.975Z,7.80
2023-04-14T22:03:45.043Z,7.73
2023-04-14T22:06:13.606Z,7.63
2023-04-14T22:08:42.500Z,7.56
2023-04-14T22:11:10.959Z,7.52
2023-04-14T22:13:39.117Z,7.48
2023-04-14T22:16:11.335Z,7.45
2023-04-14T22:18:39.858Z,7.43
2023-04-14T22:21:13.194Z,7.43
2023-04-14T22:23:43.591Z,7.42
2023-04-14T22:26:13.563Z,7.42
2023-04-14T22:28:42.550Z,7.41
2023-04-14T22:31:10.702Z,7.40
2023-04-14T22:33:42.004Z,7.39
2023-04-14T22:36:10.569Z,7.39
2023-04-14T22:38:38.857Z,7.39
2023-04-14T22:41:06.815Z,7.39
2023-04-14T22:43:34.767Z,7.39
2023-04-14T22:46:02.738Z,7.38
2023-04-14T22:48:31.034Z,7.38
2023-04-14T22:50:59.212Z,7.36
2023-04-14T22:53:28.177Z,7.34
2023-04-14T22:55:58.121Z,7.33
2023-04-14T22:58:26.190Z,7.32
2023-04-14T23:00:54.740Z,7.32
2023-04-14T23:03:23.369Z,7.31
2023-04-14T23:05:52.026Z,7.31
2023-04-14T23:08:22.149Z,7.32
2023-04-14T23:10:51.064Z,7.31
2023-04-14T23:13:18.898Z,7.30
2023-04-14T23:15:48.422Z,7.31
2023-04-14T23:18:20.897Z,7.31
2023-04-14T23:22:24.760Z,7.25
2023-04-14T23:25:02.385Z,7.20
2023-04-14T23:27:31.487Z,7.17
2023-04-14T23:29:59.591Z,7.13
2023-04-14T23:32:27.817Z,7.11
2023-04-14T23:35:00.838Z,7.10
2023-04-14T23:37:29.371Z,7.08
2023-04-14T23:39:57.581Z,7.07
2023-04-14T23:42:25.618Z,7.06
2023-04-14T23:44:54.475Z,7.07
2023-04-14T23:47:22.367Z,7.09
2023-04-14T23:49:55.418Z,7.12
2023-04-14T23:52:23.740Z,7.13
2023-04-14T23:54:52.139Z,7.08
2023-04-14T23:57:22.522Z,7.05
2023-04-14T23:59:50.784Z,7.02
